sensor_id;sensor_type;location;lat;lon;timestamp;P1;durP1;ratioP1;P2;durP2;ratioP2
15679;SDS011;15488;48.114;11.532;2023-06-24T00:00:46;3.03;;;2.73;;
15679;SDS011;15488;48.114;11.532;2023-06-24T00:03:14;3.13;;;2.70;;
15679;SDS011;15488;48.114;11.532;2023-06-24T00:05:42;2.80;;;2.60;;
15679;SDS011;15488;48.114;11.532;2023-06-24T00:08:14;3.00;;;2.67;;
15679;SDS011;15488;48.114;11.532;2023-06-24T00:10:44;2.70;;;2.50;;
15679;SDS011;15488;48.114;11.532;2023-06-24T00:13:13;2.73;;;2.53;;
15679;SDS011;15488;48.114;11.532;2023-06-24T00:15:42;3.10;;;2.80;;
15679;SDS011;15488;48.114;11.532;2023-06-24T00:18:10;2.90;;;2.70;;
15679;SDS011;15488;48.114;11.532;2023-06-24T00:20:37;3.00;;;2.70;;
15679;SDS011;15488;48.114;11.532;2023-06-24T00:23:08;2.50;;;2.30;;
15679;SDS011;15488;48.114;11.532;2023-06-24T00:25:39;2.90;;;2.60;;
15679;SDS011;15488;48.114;11.532;2023-06-24T00:28:07;2.93;;;2.30;;
15679;SDS011;15488;48.114;11.532;2023-06-24T00:30:36;3.10;;;2.80;;
15679;SDS011;15488;48.114;11.532;2023-06-24T00:33:03;2.67;;;2.43;;
15679;SDS011;15488;48.114;11.532;2023-06-24T00:35:34;2.67;;;2.47;;
15679;SDS011;15488;48.114;11.532;2023-06-24T00:38:02;2.87;;;2.57;;
15679;SDS011;15488;48.114;11.532;2023-06-24T00:40:29;4.40;;;2.97;;
15679;SDS011;15488;48.114;11.532;2023-06-24T00:42:57;3.10;;;2.80;;
15679;SDS011;15488;48.114;11.532;2023-06-24T00:45:26;3.10;;;2.80;;
15679;SDS011;15488;48.114;11.532;2023-06-24T00:47:56;3.07;;;2.77;;
15679;SDS011;15488;48.114;11.532;2023-06-24T00:50:24;3.07;;;2.77;;
15679;SDS011;15488;48.114;11.532;2023-06-24T00:52:52;2.97;;;2.53;;
15679;SDS011;15488;48.114;11.532;2023-06-24T00:55:19;2.50;;;2.30;;
15679;SDS011;15488;48.114;11.532;2023-06-24T00:57:47;2.70;;;2.50;;
15679;SDS011;15488;48.114;11.532;2023-06-24T01:00:18;2.67;;;2.47;;
15679;SDS011;15488;48.114;11.532;2023-06-24T01:02:47;3.10;;;2.80;;
15679;SDS011;15488;48.114;11.532;2023-06-24T01:05:16;3.33;;;2.70;;
15679;SDS011;15488;48.114;11.532;2023-06-24T01:07:48;3.33;;;2.77;;
15679;SDS011;15488;48.114;11.532;2023-06-24T01:10:20;2.80;;;2.60;;
15679;SDS011;15488;48.114;11.532;2023-06-24T01:12:48;2.90;;;2.60;;
15679;SDS011;15488;48.114;11.532;2023-06-24T01:15:16;3.07;;;2.77;;
15679;SDS011;15488;48.114;11.532;2023-06-24T01:17:49;3.23;;;2.77;;
15679;SDS011;15488;48.114;11.532;2023-06-24T01:20:23;2.90;;;2.60;;
15679;SDS011;15488;48.114;11.532;2023-06-24T01:26:23;3.13;;;2.53;;
15679;SDS011;15488;48.114;11.532;2023-06-24T01:29:24;3.10;;;2.40;;
15679;SDS011;15488;48.114;11.532;2023-06-24T01:32:19;3.20;;;2.57;;
15679;SDS011;15488;48.114;11.532;2023-06-24T01:34:55;2.90;;;2.60;;
15679;SDS011;15488;48.114;11.532;2023-06-24T01:37:25;2.83;;;2.53;;
15679;SDS011;15488;48.114;11.532;2023-06-24T01:39:57;2.57;;;2.37;;
15679;SDS011;15488;48.114;11.532;2023-06-24T01:42:34;2.63;;;2.43;;
15679;SDS011;15488;48.114;11.532;2023-06-24T01:45:05;2.83;;;2.63;;
15679;SDS011;15488;48.114;11.532;2023-06-24T01:47:37;3.90;;;2.50;;
15679;SDS011;15488;48.114;11.532;2023-06-24T01:50:07;2.50;;;2.30;;
15679;SDS011;15488;48.114;11.532;2023-06-24T01:52:37;2.90;;;2.60;;
15679;SDS011;15488;48.114;11.532;2023-06-24T01:55:08;2.63;;;2.43;;
15679;SDS011;15488;48.114;11.532;2023-06-24T01:57:38;3.90;;;2.47;;
15679;SDS011;15488;48.114;11.532;2023-06-24T02:00:08;2.60;;;2.40;;
15679;SDS011;15488;48.114;11.532;2023-06-24T02:02:38;2.60;;;2.40;;
15679;SDS011;15488;48.114;11.532;2023-06-24T02:05:07;2.50;;;2.30;;
15679;SDS011;15488;48.114;11.532;2023-06-24T02:07:36;2.87;;;2.60;;
15679;SDS011;15488;48.114;11.532;2023-06-24T02:10:04;2.53;;;2.33;;
15679;SDS011;15488;48.114;11.532;2023-06-24T02:12:33;2.83;;;2.63;;
15679;SDS011;15488;48.114;11.532;2023-06-24T02:15:03;2.77;;;2.47;;
15679;SDS011;15488;48.114;11.532;2023-06-24T02:17:32;3.07;;;2.60;;
15679;SDS011;15488;48.114;11.532;2023-06-24T02:20:02;2.70;;;2.40;;
15679;SDS011;15488;48.114;11.532;2023-06-24T02:22:33;2.60;;;2.40;;
15679;SDS011;15488;48.114;11.532;2023-06-24T02:25:02;2.90;;;2.60;;
15679;SDS011;15488;48.114;11.532;2023-06-24T02:27:31;2.93;;;2.63;;
15679;SDS011;15488;48.114;11.532;2023-06-24T02:29:59;2.80;;;2.60;;
15679;SDS011;15488;48.114;11.532;2023-06-24T02:32:27;3.10;;;2.50;;
15679;SDS011;15488;48.114;11.532;2023-06-24T02:34:56;3.30;;;2.80;;
15679;SDS011;15488;48.114;11.532;2023-06-24T02:37:26;3.17;;;2.87;;
15679;SDS011;15488;48.114;11.532;2023-06-24T02:39:53;2.77;;;2.57;;
15679;SDS011;15488;48.114;11.532;2023-06-24T02:42:21;3.30;;;2.77;;
15679;SDS011;15488;48.114;11.532;2023-06-24T02:44:49;3.00;;;2.70;;
15679;SDS011;15488;48.114;11.532;2023-06-24T02:47:19;3.10;;;2.80;;
15679;SDS011;15488;48.114;11.532;2023-06-24T02:49:47;4.30;;;2.90;;
15679;SDS011;15488;48.114;11.532;2023-06-24T02:52:16;4.10;;;2.60;;
15679;SDS011;15488;48.114;11.532;2023-06-24T02:54:45;2.80;;;2.60;;
15679;SDS011;15488;48.114;11.532;2023-06-24T02:57:13;2.67;;;2.47;;
15679;SDS011;15488;48.114;11.532;2023-06-24T02:59:40;3.03;;;2.73;;
15679;SDS011;15488;48.114;11.532;2023-06-24T03:02:08;3.10;;;2.80;;
15679;SDS011;15488;48.114;11.532;2023-06-24T03:04:36;2.80;;;2.47;;
15679;SDS011;15488;48.114;11.532;2023-06-24T03:07:04;2.97;;;2.67;;
15679;SDS011;15488;48.114;11.532;2023-06-24T03:09:35;2.77;;;2.57;;
15679;SDS011;15488;48.114;11.532;2023-06-24T03:12:05;3.60;;;2.77;;
15679;SDS011;15488;48.114;11.532;2023-06-24T03:14:33;3.43;;;2.90;;
15679;SDS011;15488;48.114;11.532;2023-06-24T03:17:00;3.23;;;2.80;;
15679;SDS011;15488;48.114;11.532;2023-06-24T03:19:28;2.87;;;2.60;;
15679;SDS011;15488;48.114;11.532;2023-06-24T03:21:55;2.83;;;2.63;;
15679;SDS011;15488;48.114;11.532;2023-06-24T03:24:23;3.03;;;2.67;;
15679;SDS011;15488;48.114;11.532;2023-06-24T03:26:50;2.90;;;2.60;;
15679;SDS011;15488;48.114;11.532;2023-06-24T03:29:23;2.70;;;2.50;;
15679;SDS011;15488;48.114;11.532;2023-06-24T03:31:50;2.97;;;2.67;;
15679;SDS011;15488;48.114;11.532;2023-06-24T03:34:18;3.20;;;2.77;;
15679;SDS011;15488;48.114;11.532;2023-06-24T03:36:45;3.73;;;2.67;;
15679;SDS011;15488;48.114;11.532;2023-06-24T03:39:13;3.00;;;2.70;;
15679;SDS011;15488;48.114;11.532;2023-06-24T03:41:40;3.13;;;2.70;;
15679;SDS011;15488;48.114;11.532;2023-06-24T03:44:08;4.10;;;3.00;;
15679;SDS011;15488;48.114;11.532;2023-06-24T03:46:36;3.40;;;2.77;;
15679;SDS011;15488;48.114;11.532;2023-06-24T03:49:04;2.90;;;2.60;;
15679;SDS011;15488;48.114;11.532;2023-06-24T03:51:32;2.80;;;2.50;;
15679;SDS011;15488;48.114;11.532;2023-06-24T03:53:59;2.80;;;2.60;;
15679;SDS011;15488;48.114;11.532;2023-06-24T03:56:27;3.43;;;2.90;;
15679;SDS011;15488;48.114;11.532;2023-06-24T03:58:54;3.17;;;2.83;;
15679;SDS011;15488;48.114;11.532;2023-06-24T04:01:22;2.70;;;2.47;;
15679;SDS011;15488;48.114;11.532;2023-06-24T04:03:51;3.90;;;2.77;;
15679;SDS011;15488;48.114;11.532;2023-06-24T04:06:18;2.87;;;2.60;;
15679;SDS011;15488;48.114;11.532;2023-06-24T04:08:46;3.37;;;2.73;;
15679;SDS011;15488;48.114;11.532;2023-06-24T04:11:14;3.10;;;2.80;;
15679;SDS011;15488;48.114;11.532;2023-06-24T04:13:41;3.23;;;2.70;;
15679;SDS011;15488;48.114;11.532;2023-06-24T04:16:08;3.40;;;2.40;;
15679;SDS011;15488;48.114;11.532;2023-06-24T04:18:36;2.60;;;2.40;;
15679;SDS011;15488;48.114;11.532;2023-06-24T04:21:06;3.70;;;2.80;;
15679;SDS011;15488;48.114;11.532;2023-06-24T04:23:33;3.10;;;2.80;;
15679;SDS011;15488;48.114;11.532;2023-06-24T04:26:01;3.57;;;2.70;;
15679;SDS011;15488;48.114;11.532;2023-06-24T04:28:28;3.90;;;3.10;;
15679;SDS011;15488;48.114;11.532;2023-06-24T04:30:56;3.13;;;2.80;;
15679;SDS011;15488;48.114;11.532;2023-06-24T04:33:23;3.00;;;2.70;;
15679;SDS011;15488;48.114;11.532;2023-06-24T04:35:51;4.53;;;2.80;;
15679;SDS011;15488;48.114;11.532;2023-06-24T04:38:20;2.73;;;2.53;;
15679;SDS011;15488;48.114;11.532;2023-06-24T04:40:48;3.37;;;2.63;;
15679;SDS011;15488;48.114;11.532;2023-06-24T04:43:15;3.07;;;2.77;;
15679;SDS011;15488;48.114;11.532;2023-06-24T04:45:43;3.73;;;2.70;;
15679;SDS011;15488;48.114;11.532;2023-06-24T04:48:10;3.63;;;2.80;;
15679;SDS011;15488;48.114;11.532;2023-06-24T04:50:38;3.00;;;2.70;;
15679;SDS011;15488;48.114;11.532;2023-06-24T04:53:05;4.33;;;3.03;;
15679;SDS011;15488;48.114;11.532;2023-06-24T04:55:34;3.43;;;2.57;;
15679;SDS011;15488;48.114;11.532;2023-06-24T04:58:02;3.43;;;3.10;;
15679;SDS011;15488;48.114;11.532;2023-06-24T05:00:29;2.93;;;2.53;;
15679;SDS011;15488;48.114;11.532;2023-06-24T05:02:57;3.00;;;2.70;;
15679;SDS011;15488;48.114;11.532;2023-06-24T05:05:25;3.13;;;2.83;;
15679;SDS011;15488;48.114;11.532;2023-06-24T05:07:52;3.13;;;2.83;;
15679;SDS011;15488;48.114;11.532;2023-06-24T05:10:20;3.03;;;2.60;;
15679;SDS011;15488;48.114;11.532;2023-06-24T05:12:48;3.10;;;2.80;;
15679;SDS011;15488;48.114;11.532;2023-06-24T05:15:16;3.07;;;2.70;;
15679;SDS011;15488;48.114;11.532;2023-06-24T05:17:43;3.13;;;2.83;;
15679;SDS011;15488;48.114;11.532;2023-06-24T05:20:11;2.77;;;2.57;;
15679;SDS011;15488;48.114;11.532;2023-06-24T05:22:38;3.33;;;2.90;;
15679;SDS011;15488;48.114;11.532;2023-06-24T05:25:06;3.20;;;2.90;;
15679;SDS011;15488;48.114;11.532;2023-06-24T05:27:34;3.30;;;2.80;;
15679;SDS011;15488;48.114;11.532;2023-06-24T05:30:03;3.37;;;2.77;;
15679;SDS011;15488;48.114;11.532;2023-06-24T05:32:31;3.10;;;2.80;;
15679;SDS011;15488;48.114;11.532;2023-06-24T05:34:59;3.13;;;2.83;;
15679;SDS011;15488;48.114;11.532;2023-06-24T05:37:26;3.77;;;2.80;;
15679;SDS011;15488;48.114;11.532;2023-06-24T05:39:54;3.00;;;2.50;;
15679;SDS011;15488;48.114;11.532;2023-06-24T05:42:22;3.07;;;2.77;;
15679;SDS011;15488;48.114;11.532;2023-06-24T05:44:51;3.40;;;2.73;;
15679;SDS011;15488;48.114;11.532;2023-06-24T05:47:19;3.20;;;2.90;;
15679;SDS011;15488;48.114;11.532;2023-06-24T05:49:47;2.80;;;2.60;;
15679;SDS011;15488;48.114;11.532;2023-06-24T05:52:14;3.20;;;2.90;;
15679;SDS011;15488;48.114;11.532;2023-06-24T05:54:42;3.13;;;2.83;;
15679;SDS011;15488;48.114;11.532;2023-06-24T05:57:09;2.87;;;2.67;;
15679;SDS011;15488;48.114;11.532;2023-06-24T05:59:36;2.73;;;2.53;;
15679;SDS011;15488;48.114;11.532;2023-06-24T06:02:04;2.90;;;2.60;;
15679;SDS011;15488;48.114;11.532;2023-06-24T06:04:33;3.30;;;2.80;;
15679;SDS011;15488;48.114;11.532;2023-06-24T06:07:00;3.00;;;2.70;;
15679;SDS011;15488;48.114;11.532;2023-06-24T06:09:28;4.87;;;4.37;;
15679;SDS011;15488;48.114;11.532;2023-06-24T06:11:55;3.37;;;2.90;;
15679;SDS011;15488;48.114;11.532;2023-06-24T06:14:23;3.20;;;2.90;;
15679;SDS011;15488;48.114;11.532;2023-06-24T06:16:50;3.00;;;2.70;;
15679;SDS011;15488;48.114;11.532;2023-06-24T06:19:18;3.17;;;2.87;;
15679;SDS011;15488;48.114;11.532;2023-06-24T06:21:46;3.87;;;2.70;;
15679;SDS011;15488;48.114;11.532;2023-06-24T06:24:15;3.57;;;2.77;;
15679;SDS011;15488;48.114;11.532;2023-06-24T06:26:42;3.63;;;2.90;;
15679;SDS011;15488;48.114;11.532;2023-06-24T06:29:10;3.43;;;2.60;;
15679;SDS011;15488;48.114;11.532;2023-06-24T06:31:38;3.90;;;2.73;;
15679;SDS011;15488;48.114;11.532;2023-06-24T06:34:05;3.17;;;2.77;;
15679;SDS011;15488;48.114;11.532;2023-06-24T06:36:33;3.53;;;3.00;;
15679;SDS011;15488;48.114;11.532;2023-06-24T06:39:02;3.73;;;3.33;;
15679;SDS011;15488;48.114;11.532;2023-06-24T06:41:30;3.20;;;2.90;;
15679;SDS011;15488;48.114;11.532;2023-06-24T06:43:57;2.60;;;2.40;;
15679;SDS011;15488;48.114;11.532;2023-06-24T06:46:25;3.37;;;2.70;;
15679;SDS011;15488;48.114;11.532;2023-06-24T06:48:52;2.80;;;2.60;;
15679;SDS011;15488;48.114;11.532;2023-06-24T06:51:20;3.70;;;2.73;;
15679;SDS011;15488;48.114;11.532;2023-06-24T06:53:49;3.37;;;3.03;;
15679;SDS011;15488;48.114;11.532;2023-06-24T06:56:18;3.83;;;2.73;;
15679;SDS011;15488;48.114;11.532;2023-06-24T06:58:49;3.37;;;3.00;;
15679;SDS011;15488;48.114;11.532;2023-06-24T07:01:17;3.37;;;2.83;;
15679;SDS011;15488;48.114;11.532;2023-06-24T07:03:44;2.90;;;2.60;;
15679;SDS011;15488;48.114;11.532;2023-06-24T07:06:12;2.83;;;2.53;;
15679;SDS011;15488;48.114;11.532;2023-06-24T07:08:39;3.07;;;2.77;;
15679;SDS011;15488;48.114;11.532;2023-06-24T07:11:07;4.00;;;3.60;;
15679;SDS011;15488;48.114;11.532;2023-06-24T07:13:36;3.27;;;2.60;;
15679;SDS011;15488;48.114;11.532;2023-06-24T07:16:03;3.13;;;2.57;;
15679;SDS011;15488;48.114;11.532;2023-06-24T07:18:31;2.43;;;2.23;;
15679;SDS011;15488;48.114;11.532;2023-06-24T07:20:59;3.03;;;2.13;;
15679;SDS011;15488;48.114;11.532;2023-06-24T07:23:27;2.47;;;2.20;;
15679;SDS011;15488;48.114;11.532;2023-06-24T07:25:55;3.00;;;2.70;;
15679;SDS011;15488;48.114;11.532;2023-06-24T07:28:22;2.73;;;2.53;;
15679;SDS011;15488;48.114;11.532;2023-06-24T07:30:51;2.80;;;2.60;;
15679;SDS011;15488;48.114;11.532;2023-06-24T07:33:18;2.50;;;2.30;;
15679;SDS011;15488;48.114;11.532;2023-06-24T07:35:46;4.03;;;2.83;;
15679;SDS011;15488;48.114;11.532;2023-06-24T07:38:13;2.73;;;2.53;;
15679;SDS011;15488;48.114;11.532;2023-06-24T07:40:41;3.20;;;2.47;;
15679;SDS011;15488;48.114;11.532;2023-06-24T07:43:08;2.90;;;2.60;;
15679;SDS011;15488;48.114;11.532;2023-06-24T07:45:36;2.63;;;2.43;;
15679;SDS011;15488;48.114;11.532;2023-06-24T07:48:05;2.50;;;2.30;;
15679;SDS011;15488;48.114;11.532;2023-06-24T07:50:33;3.13;;;2.83;;
15679;SDS011;15488;48.114;11.532;2023-06-24T07:53:01;2.70;;;2.50;;
15679;SDS011;15488;48.114;11.532;2023-06-24T07:55:28;3.27;;;2.40;;
15679;SDS011;15488;48.114;11.532;2023-06-24T07:57:55;3.80;;;2.43;;
15679;SDS011;15488;48.114;11.532;2023-06-24T08:00:23;2.67;;;2.30;;
15679;SDS011;15488;48.114;11.532;2023-06-24T08:02:51;3.13;;;2.50;;
15679;SDS011;15488;48.114;11.532;2023-06-24T08:05:21;2.73;;;2.50;;
15679;SDS011;15488;48.114;11.532;2023-06-24T08:07:50;2.93;;;2.60;;
15679;SDS011;15488;48.114;11.532;2023-06-24T08:10:18;2.67;;;2.47;;
15679;SDS011;15488;48.114;11.532;2023-06-24T08:12:45;2.47;;;2.27;;
15679;SDS011;15488;48.114;11.532;2023-06-24T08:15:13;3.50;;;2.70;;
15679;SDS011;15488;48.114;11.532;2023-06-24T08:17:40;3.33;;;2.43;;
15679;SDS011;15488;48.114;11.532;2023-06-24T08:20:08;2.83;;;2.63;;
15679;SDS011;15488;48.114;11.532;2023-06-24T08:22:38;2.80;;;2.60;;
15679;SDS011;15488;48.114;11.532;2023-06-24T08:25:05;2.63;;;2.20;;
15679;SDS011;15488;48.114;11.532;2023-06-24T08:27:33;2.80;;;2.47;;
15679;SDS011;15488;48.114;11.532;2023-06-24T08:30:02;2.97;;;2.70;;
15679;SDS011;15488;48.114;11.532;2023-06-24T08:32:30;2.90;;;2.60;;
15679;SDS011;15488;48.114;11.532;2023-06-24T08:34:57;3.10;;;2.80;;
15679;SDS011;15488;48.114;11.532;2023-06-24T08:37:25;2.73;;;2.53;;
15679;SDS011;15488;48.114;11.532;2023-06-24T08:39:54;2.90;;;2.70;;
15679;SDS011;15488;48.114;11.532;2023-06-24T08:42:22;3.27;;;2.97;;
15679;SDS011;15488;48.114;11.532;2023-06-24T08:44:50;3.67;;;3.37;;
15679;SDS011;15488;48.114;11.532;2023-06-24T08:47:19;3.40;;;2.97;;
15679;SDS011;15488;48.114;11.532;2023-06-24T08:49:50;3.20;;;2.90;;
15679;SDS011;15488;48.114;11.532;2023-06-24T08:52:29;3.70;;;2.90;;
15679;SDS011;15488;48.114;11.532;2023-06-24T08:54:59;3.77;;;3.20;;
15679;SDS011;15488;48.114;11.532;2023-06-24T08:57:30;2.80;;;2.60;;
15679;SDS011;15488;48.114;11.532;2023-06-24T08:59:58;4.90;;;3.07;;
15679;SDS011;15488;48.114;11.532;2023-06-24T09:02:25;3.60;;;3.30;;
15679;SDS011;15488;48.114;11.532;2023-06-24T09:04:54;3.20;;;2.90;;
15679;SDS011;15488;48.114;11.532;2023-06-24T09:07:27;3.33;;;3.03;;
15679;SDS011;15488;48.114;11.532;2023-06-24T09:09:57;3.53;;;3.23;;
15679;SDS011;15488;48.114;11.532;2023-06-24T09:12:26;3.37;;;2.60;;
15679;SDS011;15488;48.114;11.532;2023-06-24T09:14:57;3.43;;;3.03;;
15679;SDS011;15488;48.114;11.532;2023-06-24T09:17:24;3.33;;;3.03;;
15679;SDS011;15488;48.114;11.532;2023-06-24T09:19:53;4.00;;;3.10;;
15679;SDS011;15488;48.114;11.532;2023-06-24T09:22:29;3.47;;;3.17;;
15679;SDS011;15488;48.114;11.532;2023-06-24T09:24:57;5.10;;;3.10;;
15679;SDS011;15488;48.114;11.532;2023-06-24T09:27:30;3.13;;;2.83;;
15679;SDS011;15488;48.114;11.532;2023-06-24T09:29:59;3.57;;;3.10;;
15679;SDS011;15488;48.114;11.532;2023-06-24T09:32:29;3.10;;;2.80;;
15679;SDS011;15488;48.114;11.532;2023-06-24T09:34:56;3.17;;;2.87;;
15679;SDS011;15488;48.114;11.532;2023-06-24T09:37:24;3.33;;;3.03;;
15679;SDS011;15488;48.114;11.532;2023-06-24T09:39:56;3.70;;;3.33;;
15679;SDS011;15488;48.114;11.532;2023-06-24T09:42:25;4.13;;;3.17;;
15679;SDS011;15488;48.114;11.532;2023-06-24T09:44:53;3.23;;;2.90;;
15679;SDS011;15488;48.114;11.532;2023-06-24T09:47:21;3.50;;;3.10;;
15679;SDS011;15488;48.114;11.532;2023-06-24T09:49:50;3.37;;;3.07;;
15679;SDS011;15488;48.114;11.532;2023-06-24T09:52:17;3.33;;;3.03;;
15679;SDS011;15488;48.114;11.532;2023-06-24T09:54:46;3.73;;;3.10;;
15679;SDS011;15488;48.114;11.532;2023-06-24T09:57:17;4.27;;;3.33;;
15679;SDS011;15488;48.114;11.532;2023-06-24T09:59:51;6.03;;;3.30;;
15679;SDS011;15488;48.114;11.532;2023-06-24T10:02:19;3.10;;;2.80;;
15679;SDS011;15488;48.114;11.532;2023-06-24T10:04:47;3.60;;;3.20;;
15679;SDS011;15488;48.114;11.532;2023-06-24T10:07:15;3.80;;;3.40;;
15679;SDS011;15488;48.114;11.532;2023-06-24T10:09:46;3.80;;;3.40;;
15679;SDS011;15488;48.114;11.532;2023-06-24T10:12:13;3.57;;;3.27;;
15679;SDS011;15488;48.114;11.532;2023-06-24T10:14:41;3.80;;;3.40;;
15679;SDS011;15488;48.114;11.532;2023-06-24T10:17:11;4.47;;;3.40;;
15679;SDS011;15488;48.114;11.532;2023-06-24T10:19:39;3.57;;;3.27;;
15679;SDS011;15488;48.114;11.532;2023-06-24T10:22:07;5.20;;;3.63;;
15679;SDS011;15488;48.114;11.532;2023-06-24T10:24:36;3.80;;;3.50;;
15679;SDS011;15488;48.114;11.532;2023-06-24T10:27:07;4.27;;;3.57;;
15679;SDS011;15488;48.114;11.532;2023-06-24T10:29:39;4.83;;;3.37;;
15679;SDS011;15488;48.114;11.532;2023-06-24T10:32:13;3.73;;;3.43;;
15679;SDS011;15488;48.114;11.532;2023-06-24T10:34:41;3.40;;;3.10;;
15679;SDS011;15488;48.114;11.532;2023-06-24T10:37:10;3.40;;;3.10;;
15679;SDS011;15488;48.114;11.532;2023-06-24T10:39:46;3.83;;;3.43;;
15679;SDS011;15488;48.114;11.532;2023-06-24T10:42:27;3.13;;;2.90;;
15679;SDS011;15488;48.114;11.532;2023-06-24T10:45:13;3.45;;;3.17;;
15679;SDS011;15488;48.114;11.532;2023-06-24T10:47:44;3.55;;;3.25;;
15679;SDS011;15488;48.114;11.532;2023-06-24T10:50:13;3.50;;;3.20;;
15679;SDS011;15488;48.114;11.532;2023-06-24T10:52:43;3.20;;;2.90;;
15679;SDS011;15488;48.114;11.532;2023-06-24T10:55:13;3.47;;;3.17;;
15679;SDS011;15488;48.114;11.532;2023-06-24T10:57:42;3.97;;;3.53;;
15679;SDS011;15488;48.114;11.532;2023-06-24T11:00:10;4.13;;;3.70;;
15679;SDS011;15488;48.114;11.532;2023-06-24T11:02:38;3.80;;;3.50;;
15679;SDS011;15488;48.114;11.532;2023-06-24T11:05:08;4.10;;;3.45;;
15679;SDS011;15488;48.114;11.532;2023-06-24T11:07:36;3.38;;;3.08;;
15679;SDS011;15488;48.114;11.532;2023-06-24T11:10:04;3.60;;;3.28;;
15679;SDS011;15488;48.114;11.532;2023-06-24T11:12:33;3.40;;;3.10;;
15679;SDS011;15488;48.114;11.532;2023-06-24T11:15:02;3.78;;;3.42;;
15679;SDS011;15488;48.114;11.532;2023-06-24T11:17:31;3.78;;;3.20;;
15679;SDS011;15488;48.114;11.532;2023-06-24T11:20:00;3.85;;;3.08;;
15679;SDS011;15488;48.114;11.532;2023-06-24T11:22:30;3.80;;;3.13;;
15679;SDS011;15488;48.114;11.532;2023-06-24T11:24:57;3.58;;;3.28;;
15679;SDS011;15488;48.114;11.532;2023-06-24T11:27:25;3.88;;;3.40;;
15679;SDS011;15488;48.114;11.532;2023-06-24T11:29:54;3.72;;;3.10;;
15679;SDS011;15488;48.114;11.532;2023-06-24T11:32:23;3.00;;;2.70;;
15679;SDS011;15488;48.114;11.532;2023-06-24T11:34:51;3.65;;;3.30;;
15679;SDS011;15488;48.114;11.532;2023-06-24T11:37:18;4.00;;;3.60;;
15679;SDS011;15488;48.114;11.532;2023-06-24T11:40:00;3.88;;;3.58;;
15679;SDS011;15488;48.114;11.532;2023-06-24T11:42:29;3.70;;;3.30;;
15679;SDS011;15488;48.114;11.532;2023-06-24T11:45:00;3.53;;;3.22;;
15679;SDS011;15488;48.114;11.532;2023-06-24T11:47:31;3.20;;;2.90;;
15679;SDS011;15488;48.114;11.532;2023-06-24T11:49:59;3.30;;;3.00;;
15679;SDS011;15488;48.114;11.532;2023-06-24T11:52:38;3.88;;;3.47;;
15679;SDS011;15488;48.114;11.532;2023-06-24T11:55:15;4.00;;;3.60;;
15679;SDS011;15488;48.114;11.532;2023-06-24T11:57:51;3.80;;;3.50;;
15679;SDS011;15488;48.114;11.532;2023-06-24T12:00:20;3.92;;;3.63;;
15679;SDS011;15488;48.114;11.532;2023-06-24T12:02:49;3.95;;;3.33;;
15679;SDS011;15488;48.114;11.532;2023-06-24T12:05:24;4.25;;;3.20;;
15679;SDS011;15488;48.114;11.532;2023-06-24T12:07:55;5.32;;;2.92;;
15679;SDS011;15488;48.114;11.532;2023-06-24T12:10:25;3.30;;;3.08;;
15679;SDS011;15488;48.114;11.532;2023-06-24T12:12:55;3.65;;;3.10;;
15679;SDS011;15488;48.114;11.532;2023-06-24T12:15:23;3.38;;;3.08;;
15679;SDS011;15488;48.114;11.532;2023-06-24T12:17:51;3.05;;;2.85;;
15679;SDS011;15488;48.114;11.532;2023-06-24T12:20:18;3.45;;;3.15;;
15679;SDS011;15488;48.114;11.532;2023-06-24T12:22:46;3.38;;;3.08;;
15679;SDS011;15488;48.114;11.532;2023-06-24T12:25:15;3.03;;;2.80;;
15679;SDS011;15488;48.114;11.532;2023-06-24T12:27:44;3.70;;;3.40;;
15679;SDS011;15488;48.114;11.532;2023-06-24T12:30:12;3.40;;;3.10;;
15679;SDS011;15488;48.114;11.532;2023-06-24T12:32:41;3.50;;;3.15;;
15679;SDS011;15488;48.114;11.532;2023-06-24T12:35:09;3.30;;;3.00;;
15679;SDS011;15488;48.114;11.532;2023-06-24T12:37:36;4.32;;;3.35;;
15679;SDS011;15488;48.114;11.532;2023-06-24T12:40:04;3.60;;;3.28;;
15679;SDS011;15488;48.114;11.532;2023-06-24T12:42:33;4.00;;;3.60;;
15679;SDS011;15488;48.114;11.532;2023-06-24T12:45:02;3.83;;;3.53;;
15679;SDS011;15488;48.114;11.532;2023-06-24T12:47:29;4.65;;;3.00;;
15679;SDS011;15488;48.114;11.532;2023-06-24T12:49:57;3.63;;;3.30;;
15679;SDS011;15488;48.114;11.532;2023-06-24T12:52:24;3.80;;;3.47;;
15679;SDS011;15488;48.114;11.532;2023-06-24T12:54:53;3.40;;;3.15;;
15679;SDS011;15488;48.114;11.532;2023-06-24T12:57:21;3.88;;;3.30;;
15679;SDS011;15488;48.114;11.532;2023-06-24T12:59:48;3.10;;;2.90;;
15679;SDS011;15488;48.114;11.532;2023-06-24T13:02:17;3.75;;;3.10;;
15679;SDS011;15488;48.114;11.532;2023-06-24T13:04:44;3.70;;;3.40;;
15679;SDS011;15488;48.114;11.532;2023-06-24T13:07:13;3.58;;;3.28;;
15679;SDS011;15488;48.114;11.532;2023-06-24T13:09:40;3.58;;;3.25;;
15679;SDS011;15488;48.114;11.532;2023-06-24T13:12:08;3.45;;;3.15;;
15679;SDS011;15488;48.114;11.532;2023-06-24T13:14:36;3.53;;;3.22;;
15679;SDS011;15488;48.114;11.532;2023-06-24T13:17:04;3.58;;;3.28;;
15679;SDS011;15488;48.114;11.532;2023-06-24T13:19:33;2.92;;;2.72;;
15679;SDS011;15488;48.114;11.532;2023-06-24T13:22:00;3.55;;;3.25;;
15679;SDS011;15488;48.114;11.532;2023-06-24T13:24:28;3.17;;;2.95;;
15679;SDS011;15488;48.114;11.532;2023-06-24T13:26:56;3.67;;;3.22;;
15679;SDS011;15488;48.114;11.532;2023-06-24T13:29:23;3.50;;;3.20;;
15679;SDS011;15488;48.114;11.532;2023-06-24T13:31:52;3.45;;;3.15;;
15679;SDS011;15488;48.114;11.532;2023-06-24T13:34:19;4.05;;;3.60;;
15679;SDS011;15488;48.114;11.532;2023-06-24T13:36:48;3.90;;;3.58;;
15679;SDS011;15488;48.114;11.532;2023-06-24T13:39:16;3.90;;;3.50;;
15679;SDS011;15488;48.114;11.532;2023-06-24T13:41:43;4.18;;;3.88;;
15679;SDS011;15488;48.114;11.532;2023-06-24T13:44:11;4.25;;;3.85;;
15679;SDS011;15488;48.114;11.532;2023-06-24T13:46:39;4.43;;;3.67;;
15679;SDS011;15488;48.114;11.532;2023-06-24T13:49:06;4.53;;;4.13;;
15679;SDS011;15488;48.114;11.532;2023-06-24T13:51:34;5.18;;;4.78;;
15679;SDS011;15488;48.114;11.532;2023-06-24T13:54:03;9.70;;;8.82;;
15679;SDS011;15488;48.114;11.532;2023-06-24T13:56:30;6.00;;;5.60;;
15679;SDS011;15488;48.114;11.532;2023-06-24T13:58:58;5.78;;;5.38;;
15679;SDS011;15488;48.114;11.532;2023-06-24T14:01:25;4.30;;;4.00;;
15679;SDS011;15488;48.114;11.532;2023-06-24T14:03:54;6.55;;;6.15;;
15679;SDS011;15488;48.114;11.532;2023-06-24T14:06:22;6.07;;;5.70;;
15679;SDS011;15488;48.114;11.532;2023-06-24T14:08:50;6.82;;;6.43;;
15679;SDS011;15488;48.114;11.532;2023-06-24T14:11:19;7.15;;;6.65;;
15679;SDS011;15488;48.114;11.532;2023-06-24T14:13:47;6.78;;;6.38;;
15679;SDS011;15488;48.114;11.532;2023-06-24T14:16:14;5.60;;;5.30;;
15679;SDS011;15488;48.114;11.532;2023-06-24T14:18:42;7.70;;;7.30;;
15679;SDS011;15488;48.114;11.532;2023-06-24T14:21:10;7.63;;;7.13;;
15679;SDS011;15488;48.114;11.532;2023-06-24T14:23:37;6.35;;;6.05;;
15679;SDS011;15488;48.114;11.532;2023-06-24T14:26:05;6.68;;;6.28;;
15679;SDS011;15488;48.114;11.532;2023-06-24T14:28:34;6.03;;;5.72;;
15679;SDS011;15488;48.114;11.532;2023-06-24T14:31:01;4.70;;;4.40;;
15679;SDS011;15488;48.114;11.532;2023-06-24T14:33:28;5.90;;;5.50;;
15679;SDS011;15488;48.114;11.532;2023-06-24T14:35:56;7.43;;;6.95;;
15679;SDS011;15488;48.114;11.532;2023-06-24T14:38:23;6.78;;;6.38;;
15679;SDS011;15488;48.114;11.532;2023-06-24T14:40:51;6.88;;;6.45;;
15679;SDS011;15488;48.114;11.532;2023-06-24T14:43:21;7.43;;;7.03;;
15679;SDS011;15488;48.114;11.532;2023-06-24T14:45:49;6.47;;;6.07;;